Startpagina
METAR-TAF:

METAR-TAF

Vliegvelden :

Dakar, Senegal

Luchthaven Dakar

breedte: 14-44N, lengte: 017-30W, hoogte: 27 m

Actueel weer

Dit bericht is 29 minuten geleden gemaakt, om 04:00 UTC
Wind 12 kt uit het noordnoordoosten
Temperatuur 21°C
Vochtigheid 73%
Druk 1014 hPa
Zicht: 8000 m

METAR: GOOY 140400Z 02012KT 8000 NSC 21/16 Q1014

Tijdstip: 04:29 (04:29 UTC)

Verwachting

Dit bericht is 4 uur en het 59 minuten geleden gemaakt, om 23:30 UTC
Verwachting geldig van 14 om 00 UTC tot 15 om 06 UTC
Wind 15 kt uit het noordnoordoosten
Zicht: 8000 m

TAF: GOOY 132330Z 1400/1506 02015KT 8000 NSC

Waarnemingen en weersverwachtingen van meer dan 4000 vliegvelden (METAR en TAF).

De beschikbare stations zijn de gele en rode punten op de kaart.

Ga met uw muis naar het station om de naam te zien.

Klik dan om waarnemingen en weersverwachtingen te zien.

kaart wijzigen: klik op de groene knoppen met een zwart kruis om in te zoomen, op de groene knop met een streepje om uit te zoomen of op de groene pijlen voor aangrenzende kaarten.


METAR-TAF: